sensor_id;sensor_type;location;lat;lon;timestamp;P1;durP1;ratioP1;P2;durP2;ratioP2
78670;SDS011;68277;52.724;6.516;2023-05-07T00:00:39;7.32;;;3.95;;
78670;SDS011;68277;52.724;6.516;2023-05-07T00:03:05;9.85;;;6.28;;
78670;SDS011;68277;52.724;6.516;2023-05-07T00:05:31;8.23;;;4.07;;
78670;SDS011;68277;52.724;6.516;2023-05-07T00:08:00;9.80;;;5.90;;
78670;SDS011;68277;52.724;6.516;2023-05-07T00:10:26;6.65;;;4.05;;
78670;SDS011;68277;52.724;6.516;2023-05-07T00:12:51;11.70;;;5.10;;
78670;SDS011;68277;52.724;6.516;2023-05-07T00:15:17;7.40;;;4.10;;
78670;SDS011;68277;52.724;6.516;2023-05-07T00:17:42;10.63;;;3.60;;
78670;SDS011;68277;52.724;6.516;2023-05-07T00:20:08;7.60;;;4.68;;
78670;SDS011;68277;52.724;6.516;2023-05-07T00:22:33;9.50;;;4.50;;
78670;SDS011;68277;52.724;6.516;2023-05-07T00:24:59;7.80;;;4.30;;
78670;SDS011;68277;52.724;6.516;2023-05-07T00:27:25;7.00;;;4.63;;
78670;SDS011;68277;52.724;6.516;2023-05-07T00:29:53;11.50;;;4.43;;
78670;SDS011;68277;52.724;6.516;2023-05-07T00:32:19;7.75;;;4.28;;
78670;SDS011;68277;52.724;6.516;2023-05-07T00:34:44;8.60;;;4.72;;
78670;SDS011;68277;52.724;6.516;2023-05-07T00:37:10;9.38;;;5.07;;
78670;SDS011;68277;52.724;6.516;2023-05-07T00:39:36;8.00;;;3.88;;
78670;SDS011;68277;52.724;6.516;2023-05-07T00:42:02;8.43;;;4.78;;
78670;SDS011;68277;52.724;6.516;2023-05-07T00:44:28;7.40;;;3.88;;
78670;SDS011;68277;52.724;6.516;2023-05-07T00:46:55;9.75;;;6.38;;
78670;SDS011;68277;52.724;6.516;2023-05-07T00:49:21;7.25;;;3.45;;
78670;SDS011;68277;52.724;6.516;2023-05-07T00:51:48;7.32;;;3.90;;
78670;SDS011;68277;52.724;6.516;2023-05-07T00:54:15;7.32;;;3.88;;
78670;SDS011;68277;52.724;6.516;2023-05-07T00:56:40;12.57;;;5.20;;
78670;SDS011;68277;52.724;6.516;2023-05-07T00:59:06;9.77;;;6.10;;
78670;SDS011;68277;52.724;6.516;2023-05-07T01:01:32;11.68;;;6.38;;
78670;SDS011;68277;52.724;6.516;2023-05-07T01:03:57;7.72;;;5.18;;
78670;SDS011;68277;52.724;6.516;2023-05-07T01:06:23;9.32;;;4.90;;
78670;SDS011;68277;52.724;6.516;2023-05-07T01:08:50;7.85;;;3.42;;
78670;SDS011;68277;52.724;6.516;2023-05-07T01:11:18;8.55;;;4.93;;
78670;SDS011;68277;52.724;6.516;2023-05-07T01:13:45;6.05;;;3.55;;
78670;SDS011;68277;52.724;6.516;2023-05-07T01:16:12;9.23;;;4.97;;
78670;SDS011;68277;52.724;6.516;2023-05-07T01:18:38;9.20;;;3.88;;
78670;SDS011;68277;52.724;6.516;2023-05-07T01:21:04;6.25;;;3.42;;
78670;SDS011;68277;52.724;6.516;2023-05-07T01:23:32;8.85;;;3.85;;
78670;SDS011;68277;52.724;6.516;2023-05-07T01:25:59;6.75;;;3.63;;
78670;SDS011;68277;52.724;6.516;2023-05-07T01:28:26;6.55;;;4.57;;
78670;SDS011;68277;52.724;6.516;2023-05-07T01:30:56;13.60;;;5.95;;
78670;SDS011;68277;52.724;6.516;2023-05-07T01:33:26;14.13;;;5.43;;
78670;SDS011;68277;52.724;6.516;2023-05-07T01:35:56;10.75;;;6.40;;
78670;SDS011;68277;52.724;6.516;2023-05-07T01:38:25;8.57;;;5.68;;
78670;SDS011;68277;52.724;6.516;2023-05-07T01:40:52;8.50;;;4.95;;
78670;SDS011;68277;52.724;6.516;2023-05-07T01:43:19;15.43;;;6.30;;
78670;SDS011;68277;52.724;6.516;2023-05-07T01:45:44;13.82;;;7.03;;
78670;SDS011;68277;52.724;6.516;2023-05-07T01:48:11;16.73;;;7.72;;
78670;SDS011;68277;52.724;6.516;2023-05-07T01:50:39;16.08;;;7.47;;
78670;SDS011;68277;52.724;6.516;2023-05-07T01:53:06;14.90;;;6.90;;
78670;SDS011;68277;52.724;6.516;2023-05-07T01:55:31;15.23;;;7.90;;
78670;SDS011;68277;52.724;6.516;2023-05-07T01:57:57;14.73;;;8.48;;
78670;SDS011;68277;52.724;6.516;2023-05-07T02:00:24;17.20;;;7.75;;
78670;SDS011;68277;52.724;6.516;2023-05-07T02:02:50;12.68;;;6.57;;
78670;SDS011;68277;52.724;6.516;2023-05-07T02:05:37;11.15;;;6.05;;
78670;SDS011;68277;52.724;6.516;2023-05-07T02:08:11;14.43;;;7.00;;
78670;SDS011;68277;52.724;6.516;2023-05-07T02:10:36;14.32;;;6.95;;
78670;SDS011;68277;52.724;6.516;2023-05-07T02:13:04;18.10;;;9.55;;
78670;SDS011;68277;52.724;6.516;2023-05-07T02:15:30;11.77;;;6.53;;
78670;SDS011;68277;52.724;6.516;2023-05-07T02:18:01;15.57;;;6.85;;
78670;SDS011;68277;52.724;6.516;2023-05-07T02:20:31;13.73;;;6.85;;
78670;SDS011;68277;52.724;6.516;2023-05-07T02:22:58;14.65;;;7.53;;
78670;SDS011;68277;52.724;6.516;2023-05-07T02:25:25;14.13;;;7.35;;
78670;SDS011;68277;52.724;6.516;2023-05-07T02:27:51;16.10;;;8.07;;
78670;SDS011;68277;52.724;6.516;2023-05-07T02:30:22;16.05;;;8.13;;
78670;SDS011;68277;52.724;6.516;2023-05-07T02:32:52;11.10;;;6.50;;
78670;SDS011;68277;52.724;6.516;2023-05-07T02:35:18;13.45;;;6.55;;
78670;SDS011;68277;52.724;6.516;2023-05-07T02:37:43;14.10;;;7.45;;
78670;SDS011;68277;52.724;6.516;2023-05-07T02:40:09;14.23;;;6.97;;
78670;SDS011;68277;52.724;6.516;2023-05-07T02:42:35;16.38;;;8.38;;
78670;SDS011;68277;52.724;6.516;2023-05-07T02:45:01;16.33;;;8.85;;
78670;SDS011;68277;52.724;6.516;2023-05-07T02:47:26;16.05;;;7.60;;
78670;SDS011;68277;52.724;6.516;2023-05-07T02:49:53;15.13;;;7.30;;
78670;SDS011;68277;52.724;6.516;2023-05-07T02:52:19;14.73;;;7.50;;
78670;SDS011;68277;52.724;6.516;2023-05-07T02:54:45;19.10;;;10.15;;
78670;SDS011;68277;52.724;6.516;2023-05-07T02:57:10;14.57;;;8.30;;
78670;SDS011;68277;52.724;6.516;2023-05-07T02:59:36;18.63;;;8.55;;
78670;SDS011;68277;52.724;6.516;2023-05-07T03:02:01;16.65;;;8.77;;
78670;SDS011;68277;52.724;6.516;2023-05-07T03:04:27;17.92;;;9.57;;
78670;SDS011;68277;52.724;6.516;2023-05-07T03:06:52;17.88;;;8.55;;
78670;SDS011;68277;52.724;6.516;2023-05-07T03:09:18;18.92;;;9.68;;
78670;SDS011;68277;52.724;6.516;2023-05-07T03:11:43;17.00;;;7.07;;
78670;SDS011;68277;52.724;6.516;2023-05-07T03:14:09;16.58;;;8.20;;
78670;SDS011;68277;52.724;6.516;2023-05-07T03:16:35;15.60;;;7.72;;
78670;SDS011;68277;52.724;6.516;2023-05-07T03:19:00;15.27;;;7.97;;
78670;SDS011;68277;52.724;6.516;2023-05-07T03:21:26;15.30;;;7.80;;
78670;SDS011;68277;52.724;6.516;2023-05-07T03:23:52;18.23;;;9.00;;
78670;SDS011;68277;52.724;6.516;2023-05-07T03:26:18;20.25;;;9.90;;
78670;SDS011;68277;52.724;6.516;2023-05-07T03:28:44;20.67;;;9.65;;
78670;SDS011;68277;52.724;6.516;2023-05-07T03:31:12;16.52;;;8.18;;
78670;SDS011;68277;52.724;6.516;2023-05-07T03:33:39;16.08;;;8.70;;
78670;SDS011;68277;52.724;6.516;2023-05-07T03:36:25;17.52;;;9.45;;
78670;SDS011;68277;52.724;6.516;2023-05-07T03:38:55;19.77;;;9.00;;
78670;SDS011;68277;52.724;6.516;2023-05-07T03:41:23;18.92;;;9.65;;
78670;SDS011;68277;52.724;6.516;2023-05-07T03:43:55;21.55;;;11.23;;
78670;SDS011;68277;52.724;6.516;2023-05-07T03:46:21;17.95;;;9.25;;
78670;SDS011;68277;52.724;6.516;2023-05-07T03:48:46;18.60;;;8.18;;
78670;SDS011;68277;52.724;6.516;2023-05-07T03:53:39;22.95;;;10.68;;
78670;SDS011;68277;52.724;6.516;2023-05-07T03:56:04;23.17;;;10.55;;
78670;SDS011;68277;52.724;6.516;2023-05-07T03:58:34;16.48;;;8.93;;
78670;SDS011;68277;52.724;6.516;2023-05-07T04:01:04;17.98;;;8.27;;
78670;SDS011;68277;52.724;6.516;2023-05-07T04:03:30;27.05;;;11.70;;
78670;SDS011;68277;52.724;6.516;2023-05-07T04:06:02;25.25;;;12.07;;
78670;SDS011;68277;52.724;6.516;2023-05-07T04:08:29;29.85;;;12.95;;
78670;SDS011;68277;52.724;6.516;2023-05-07T04:10:55;27.35;;;11.25;;
78670;SDS011;68277;52.724;6.516;2023-05-07T04:13:23;26.48;;;10.82;;
78670;SDS011;68277;52.724;6.516;2023-05-07T04:15:52;16.88;;;9.60;;
78670;SDS011;68277;52.724;6.516;2023-05-07T04:18:18;18.77;;;9.02;;
78670;SDS011;68277;52.724;6.516;2023-05-07T04:20:47;17.52;;;8.57;;
78670;SDS011;68277;52.724;6.516;2023-05-07T04:23:14;21.83;;;10.43;;
78670;SDS011;68277;52.724;6.516;2023-05-07T04:25:40;25.75;;;12.10;;
78670;SDS011;68277;52.724;6.516;2023-05-07T04:28:19;19.35;;;9.15;;
78670;SDS011;68277;52.724;6.516;2023-05-07T04:30:44;20.88;;;10.45;;
78670;SDS011;68277;52.724;6.516;2023-05-07T04:33:16;26.27;;;11.23;;
78670;SDS011;68277;52.724;6.516;2023-05-07T04:35:43;16.73;;;9.20;;
78670;SDS011;68277;52.724;6.516;2023-05-07T04:38:09;17.88;;;8.38;;
78670;SDS011;68277;52.724;6.516;2023-05-07T04:40:38;25.15;;;12.15;;
78670;SDS011;68277;52.724;6.516;2023-05-07T04:43:05;19.05;;;8.70;;
78670;SDS011;68277;52.724;6.516;2023-05-07T04:45:35;18.30;;;9.23;;
78670;SDS011;68277;52.724;6.516;2023-05-07T04:48:01;22.85;;;9.52;;
78670;SDS011;68277;52.724;6.516;2023-05-07T04:50:28;24.05;;;9.40;;
78670;SDS011;68277;52.724;6.516;2023-05-07T04:52:58;19.73;;;9.05;;
78670;SDS011;68277;52.724;6.516;2023-05-07T04:55:24;20.58;;;10.10;;
78670;SDS011;68277;52.724;6.516;2023-05-07T04:57:49;17.48;;;9.15;;
78670;SDS011;68277;52.724;6.516;2023-05-07T05:00:16;22.60;;;11.20;;
78670;SDS011;68277;52.724;6.516;2023-05-07T05:02:46;32.50;;;12.02;;
78670;SDS011;68277;52.724;6.516;2023-05-07T05:05:15;20.85;;;10.32;;
78670;SDS011;68277;52.724;6.516;2023-05-07T05:07:41;20.38;;;9.07;;
78670;SDS011;68277;52.724;6.516;2023-05-07T05:10:07;21.60;;;9.70;;
78670;SDS011;68277;52.724;6.516;2023-05-07T05:12:35;23.17;;;9.95;;
78670;SDS011;68277;52.724;6.516;2023-05-07T05:15:01;18.83;;;8.02;;
78670;SDS011;68277;52.724;6.516;2023-05-07T05:17:28;12.75;;;7.28;;
78670;SDS011;68277;52.724;6.516;2023-05-07T05:19:53;16.95;;;8.48;;
78670;SDS011;68277;52.724;6.516;2023-05-07T05:22:19;25.50;;;12.60;;
78670;SDS011;68277;52.724;6.516;2023-05-07T05:24:44;27.75;;;12.80;;
78670;SDS011;68277;52.724;6.516;2023-05-07T05:27:10;15.57;;;8.15;;
78670;SDS011;68277;52.724;6.516;2023-05-07T05:29:35;19.52;;;9.77;;
78670;SDS011;68277;52.724;6.516;2023-05-07T05:32:01;20.70;;;10.68;;
78670;SDS011;68277;52.724;6.516;2023-05-07T05:34:29;24.15;;;11.23;;
78670;SDS011;68277;52.724;6.516;2023-05-07T05:36:55;15.63;;;8.30;;
78670;SDS011;68277;52.724;6.516;2023-05-07T05:39:21;20.08;;;9.65;;
78670;SDS011;68277;52.724;6.516;2023-05-07T05:41:49;22.63;;;11.70;;
78670;SDS011;68277;52.724;6.516;2023-05-07T05:44:15;22.27;;;9.07;;
78670;SDS011;68277;52.724;6.516;2023-05-07T05:46:42;20.08;;;9.45;;
78670;SDS011;68277;52.724;6.516;2023-05-07T05:49:07;21.45;;;10.05;;
78670;SDS011;68277;52.724;6.516;2023-05-07T05:51:33;17.73;;;9.35;;
78670;SDS011;68277;52.724;6.516;2023-05-07T05:53:59;22.75;;;8.85;;
78670;SDS011;68277;52.724;6.516;2023-05-07T05:56:25;14.80;;;7.03;;
78670;SDS011;68277;52.724;6.516;2023-05-07T05:58:51;16.92;;;8.05;;
78670;SDS011;68277;52.724;6.516;2023-05-07T06:01:17;17.15;;;8.13;;
78670;SDS011;68277;52.724;6.516;2023-05-07T06:03:47;17.30;;;9.15;;
78670;SDS011;68277;52.724;6.516;2023-05-07T06:06:14;24.00;;;10.02;;
78670;SDS011;68277;52.724;6.516;2023-05-07T06:11:06;22.15;;;9.15;;
78670;SDS011;68277;52.724;6.516;2023-05-07T06:13:35;21.90;;;10.23;;
78670;SDS011;68277;52.724;6.516;2023-05-07T06:16:00;15.05;;;8.27;;
78670;SDS011;68277;52.724;6.516;2023-05-07T06:18:26;16.35;;;8.43;;
78670;SDS011;68277;52.724;6.516;2023-05-07T06:20:51;20.27;;;9.75;;
78670;SDS011;68277;52.724;6.516;2023-05-07T06:23:23;16.67;;;9.40;;
78670;SDS011;68277;52.724;6.516;2023-05-07T06:25:49;23.10;;;10.98;;
78670;SDS011;68277;52.724;6.516;2023-05-07T06:28:21;17.20;;;8.35;;
78670;SDS011;68277;52.724;6.516;2023-05-07T06:30:47;21.48;;;9.63;;
78670;SDS011;68277;52.724;6.516;2023-05-07T06:33:16;22.90;;;10.63;;
78670;SDS011;68277;52.724;6.516;2023-05-07T06:35:42;15.82;;;9.23;;
78670;SDS011;68277;52.724;6.516;2023-05-07T06:38:07;22.75;;;10.15;;
78670;SDS011;68277;52.724;6.516;2023-05-07T06:40:32;17.48;;;8.77;;
78670;SDS011;68277;52.724;6.516;2023-05-07T06:42:59;23.98;;;11.85;;
78670;SDS011;68277;52.724;6.516;2023-05-07T06:45:41;22.67;;;10.48;;
78670;SDS011;68277;52.724;6.516;2023-05-07T06:48:08;21.00;;;9.50;;
78670;SDS011;68277;52.724;6.516;2023-05-07T06:50:43;21.17;;;9.43;;
78670;SDS011;68277;52.724;6.516;2023-05-07T06:53:10;20.55;;;10.90;;
78670;SDS011;68277;52.724;6.516;2023-05-07T06:55:35;20.65;;;9.52;;
78670;SDS011;68277;52.724;6.516;2023-05-07T06:58:10;20.38;;;10.35;;
78670;SDS011;68277;52.724;6.516;2023-05-07T07:00:36;22.92;;;11.60;;
78670;SDS011;68277;52.724;6.516;2023-05-07T07:03:01;17.67;;;8.93;;
78670;SDS011;68277;52.724;6.516;2023-05-07T07:05:28;23.00;;;9.98;;
78670;SDS011;68277;52.724;6.516;2023-05-07T07:07:55;20.45;;;10.20;;
78670;SDS011;68277;52.724;6.516;2023-05-07T07:10:24;18.98;;;9.05;;
78670;SDS011;68277;52.724;6.516;2023-05-07T07:12:50;22.30;;;11.50;;
78670;SDS011;68277;52.724;6.516;2023-05-07T07:15:18;24.70;;;11.75;;
78670;SDS011;68277;52.724;6.516;2023-05-07T07:17:47;22.65;;;11.63;;
78670;SDS011;68277;52.724;6.516;2023-05-07T07:20:14;19.13;;;10.02;;
78670;SDS011;68277;52.724;6.516;2023-05-07T07:22:43;19.33;;;9.85;;
78670;SDS011;68277;52.724;6.516;2023-05-07T07:25:09;22.88;;;11.18;;
78670;SDS011;68277;52.724;6.516;2023-05-07T07:27:34;20.23;;;11.18;;
78670;SDS011;68277;52.724;6.516;2023-05-07T07:30:01;17.25;;;9.02;;
78670;SDS011;68277;52.724;6.516;2023-05-07T07:32:29;21.65;;;10.38;;
78670;SDS011;68277;52.724;6.516;2023-05-07T07:34:55;19.42;;;9.82;;
78670;SDS011;68277;52.724;6.516;2023-05-07T07:37:20;17.52;;;9.02;;
78670;SDS011;68277;52.724;6.516;2023-05-07T07:39:46;17.92;;;8.95;;
78670;SDS011;68277;52.724;6.516;2023-05-07T07:42:12;20.27;;;10.98;;
78670;SDS011;68277;52.724;6.516;2023-05-07T07:44:38;20.90;;;9.48;;
78670;SDS011;68277;52.724;6.516;2023-05-07T07:47:07;20.73;;;10.25;;
78670;SDS011;68277;52.724;6.516;2023-05-07T07:49:33;24.00;;;11.10;;
78670;SDS011;68277;52.724;6.516;2023-05-07T07:52:02;21.67;;;11.18;;
78670;SDS011;68277;52.724;6.516;2023-05-07T07:54:30;19.50;;;10.15;;
78670;SDS011;68277;52.724;6.516;2023-05-07T07:56:56;20.33;;;12.32;;
78670;SDS011;68277;52.724;6.516;2023-05-07T07:59:22;28.13;;;11.95;;
78670;SDS011;68277;52.724;6.516;2023-05-07T08:01:48;25.48;;;12.43;;
78670;SDS011;68277;52.724;6.516;2023-05-07T08:04:16;20.05;;;10.95;;
78670;SDS011;68277;52.724;6.516;2023-05-07T08:06:42;23.20;;;10.50;;
78670;SDS011;68277;52.724;6.516;2023-05-07T08:09:08;22.60;;;10.73;;
78670;SDS011;68277;52.724;6.516;2023-05-07T08:11:35;23.48;;;11.07;;
78670;SDS011;68277;52.724;6.516;2023-05-07T08:14:01;20.95;;;10.75;;
78670;SDS011;68277;52.724;6.516;2023-05-07T08:16:27;19.27;;;11.20;;
78670;SDS011;68277;52.724;6.516;2023-05-07T08:18:53;21.67;;;8.63;;
78670;SDS011;68277;52.724;6.516;2023-05-07T08:21:19;24.58;;;11.57;;
78670;SDS011;68277;52.724;6.516;2023-05-07T08:23:45;20.42;;;9.75;;
78670;SDS011;68277;52.724;6.516;2023-05-07T08:26:10;20.35;;;10.38;;
78670;SDS011;68277;52.724;6.516;2023-05-07T08:28:36;21.67;;;11.02;;
78670;SDS011;68277;52.724;6.516;2023-05-07T08:31:01;19.35;;;9.95;;
78670;SDS011;68277;52.724;6.516;2023-05-07T08:33:31;16.70;;;10.07;;
78670;SDS011;68277;52.724;6.516;2023-05-07T08:35:57;23.00;;;11.35;;
78670;SDS011;68277;52.724;6.516;2023-05-07T08:38:24;22.23;;;10.85;;
78670;SDS011;68277;52.724;6.516;2023-05-07T08:40:49;21.80;;;10.48;;
78670;SDS011;68277;52.724;6.516;2023-05-07T08:43:18;23.23;;;10.60;;
78670;SDS011;68277;52.724;6.516;2023-05-07T08:48:15;15.63;;;7.22;;
78670;SDS011;68277;52.724;6.516;2023-05-07T08:50:45;25.65;;;12.07;;
78670;SDS011;68277;52.724;6.516;2023-05-07T08:53:11;19.20;;;10.35;;
78670;SDS011;68277;52.724;6.516;2023-05-07T08:55:39;20.77;;;10.40;;
78670;SDS011;68277;52.724;6.516;2023-05-07T08:58:05;23.08;;;10.25;;
78670;SDS011;68277;52.724;6.516;2023-05-07T09:00:31;19.25;;;10.30;;
78670;SDS011;68277;52.724;6.516;2023-05-07T09:02:59;20.88;;;10.05;;
78670;SDS011;68277;52.724;6.516;2023-05-07T09:05:25;18.27;;;10.07;;
78670;SDS011;68277;52.724;6.516;2023-05-07T09:07:51;22.80;;;11.25;;
78670;SDS011;68277;52.724;6.516;2023-05-07T09:10:18;21.77;;;10.90;;
78670;SDS011;68277;52.724;6.516;2023-05-07T09:12:46;19.27;;;10.32;;
78670;SDS011;68277;52.724;6.516;2023-05-07T09:17:38;19.02;;;9.52;;
78670;SDS011;68277;52.724;6.516;2023-05-07T09:20:04;17.50;;;8.77;;
78670;SDS011;68277;52.724;6.516;2023-05-07T09:22:32;22.92;;;11.35;;
78670;SDS011;68277;52.724;6.516;2023-05-07T09:25:02;16.23;;;8.70;;
78670;SDS011;68277;52.724;6.516;2023-05-07T09:27:30;19.38;;;10.40;;
78670;SDS011;68277;52.724;6.516;2023-05-07T09:29:58;22.60;;;10.75;;
78670;SDS011;68277;52.724;6.516;2023-05-07T09:32:24;18.00;;;9.10;;
78670;SDS011;68277;52.724;6.516;2023-05-07T09:34:50;16.77;;;9.25;;
78670;SDS011;68277;52.724;6.516;2023-05-07T09:37:18;17.13;;;8.30;;
78670;SDS011;68277;52.724;6.516;2023-05-07T09:39:46;17.65;;;8.38;;
78670;SDS011;68277;52.724;6.516;2023-05-07T09:42:22;22.20;;;10.65;;
78670;SDS011;68277;52.724;6.516;2023-05-07T09:44:54;17.83;;;11.02;;
78670;SDS011;68277;52.724;6.516;2023-05-07T09:47:23;19.88;;;9.48;;
78670;SDS011;68277;52.724;6.516;2023-05-07T09:49:54;16.15;;;9.52;;
78670;SDS011;68277;52.724;6.516;2023-05-07T09:52:22;17.63;;;9.57;;
78670;SDS011;68277;52.724;6.516;2023-05-07T09:54:53;14.30;;;7.47;;
78670;SDS011;68277;52.724;6.516;2023-05-07T09:57:23;21.27;;;10.57;;
78670;SDS011;68277;52.724;6.516;2023-05-07T09:59:56;17.88;;;9.43;;
78670;SDS011;68277;52.724;6.516;2023-05-07T10:02:25;14.20;;;7.22;;
78670;SDS011;68277;52.724;6.516;2023-05-07T10:04:55;19.48;;;8.98;;
78670;SDS011;68277;52.724;6.516;2023-05-07T10:07:27;13.32;;;7.90;;
78670;SDS011;68277;52.724;6.516;2023-05-07T10:09:56;14.85;;;8.35;;
78670;SDS011;68277;52.724;6.516;2023-05-07T10:12:34;15.02;;;8.23;;
78670;SDS011;68277;52.724;6.516;2023-05-07T10:15:06;16.50;;;9.07;;
78670;SDS011;68277;52.724;6.516;2023-05-07T10:17:34;16.17;;;8.85;;
78670;SDS011;68277;52.724;6.516;2023-05-07T10:20:01;15.40;;;8.77;;
78670;SDS011;68277;52.724;6.516;2023-05-07T10:22:27;14.20;;;8.52;;
78670;SDS011;68277;52.724;6.516;2023-05-07T10:24:54;18.08;;;10.15;;
78670;SDS011;68277;52.724;6.516;2023-05-07T10:27:24;16.20;;;8.73;;
78670;SDS011;68277;52.724;6.516;2023-05-07T10:32:37;14.63;;;8.80;;
78670;SDS011;68277;52.724;6.516;2023-05-07T10:37:49;14.48;;;8.18;;
78670;SDS011;68277;52.724;6.516;2023-05-07T10:40:16;10.60;;;6.05;;
78670;SDS011;68277;52.724;6.516;2023-05-07T10:42:54;13.68;;;7.47;;
78670;SDS011;68277;52.724;6.516;2023-05-07T10:45:26;14.40;;;8.35;;
78670;SDS011;68277;52.724;6.516;2023-05-07T10:50:41;11.18;;;6.88;;
78670;SDS011;68277;52.724;6.516;2023-05-07T10:55:50;9.88;;;5.70;;
78670;SDS011;68277;52.724;6.516;2023-05-07T11:00:49;14.40;;;8.52;;
78670;SDS011;68277;52.724;6.516;2023-05-07T11:03:27;16.17;;;8.40;;
78670;SDS011;68277;52.724;6.516;2023-05-07T11:06:14;10.45;;;6.85;;
78670;SDS011;68277;52.724;6.516;2023-05-07T11:13:51;14.25;;;7.07;;
78670;SDS011;68277;52.724;6.516;2023-05-07T11:16:30;10.20;;;6.30;;
78670;SDS011;68277;52.724;6.516;2023-05-07T11:21:41;13.15;;;6.65;;
78670;SDS011;68277;52.724;6.516;2023-05-07T11:24:23;13.05;;;7.32;;
78670;SDS011;68277;52.724;6.516;2023-05-07T11:26:56;11.32;;;7.10;;
78670;SDS011;68277;52.724;6.516;2023-05-07T11:29:23;14.13;;;7.82;;
78670;SDS011;68277;52.724;6.516;2023-05-07T11:31:55;12.13;;;6.25;;
78670;SDS011;68277;52.724;6.516;2023-05-07T11:34:24;10.55;;;6.00;;
78670;SDS011;68277;52.724;6.516;2023-05-07T11:36:52;11.48;;;6.97;;
78670;SDS011;68277;52.724;6.516;2023-05-07T11:39:25;12.02;;;6.63;;
78670;SDS011;68277;52.724;6.516;2023-05-07T11:41:51;10.55;;;5.97;;
78670;SDS011;68277;52.724;6.516;2023-05-07T11:44:17;10.48;;;5.45;;
78670;SDS011;68277;52.724;6.516;2023-05-07T11:46:43;11.68;;;6.82;;
78670;SDS011;68277;52.724;6.516;2023-05-07T11:49:10;15.23;;;8.48;;
78670;SDS011;68277;52.724;6.516;2023-05-07T11:51:36;12.73;;;6.57;;
78670;SDS011;68277;52.724;6.516;2023-05-07T11:54:03;20.50;;;10.73;;
78670;SDS011;68277;52.724;6.516;2023-05-07T11:56:33;11.55;;;6.10;;
78670;SDS011;68277;52.724;6.516;2023-05-07T11:59:00;14.52;;;7.15;;
78670;SDS011;68277;52.724;6.516;2023-05-07T12:01:29;11.30;;;6.63;;
78670;SDS011;68277;52.724;6.516;2023-05-07T12:03:55;17.13;;;7.88;;
78670;SDS011;68277;52.724;6.516;2023-05-07T12:06:20;13.70;;;7.03;;
78670;SDS011;68277;52.724;6.516;2023-05-07T12:08:45;13.75;;;7.97;;
78670;SDS011;68277;52.724;6.516;2023-05-07T12:11:16;12.10;;;7.38;;
78670;SDS011;68277;52.724;6.516;2023-05-07T12:13:47;16.63;;;8.23;;
78670;SDS011;68277;52.724;6.516;2023-05-07T12:16:13;11.13;;;6.95;;
78670;SDS011;68277;52.724;6.516;2023-05-07T12:18:39;7.95;;;4.78;;
78670;SDS011;68277;52.724;6.516;2023-05-07T12:21:08;10.32;;;5.30;;
78670;SDS011;68277;52.724;6.516;2023-05-07T12:23:35;12.32;;;7.43;;
78670;SDS011;68277;52.724;6.516;2023-05-07T12:26:01;13.55;;;7.70;;
78670;SDS011;68277;52.724;6.516;2023-05-07T12:28:29;13.43;;;7.47;;
78670;SDS011;68277;52.724;6.516;2023-05-07T12:30:55;13.30;;;7.10;;
78670;SDS011;68277;52.724;6.516;2023-05-07T12:33:25;15.40;;;7.57;;
78670;SDS011;68277;52.724;6.516;2023-05-07T12:35:52;10.80;;;6.18;;
78670;SDS011;68277;52.724;6.516;2023-05-07T12:38:18;13.93;;;6.50;;
78670;SDS011;68277;52.724;6.516;2023-05-07T12:40:45;16.52;;;9.35;;
78670;SDS011;68277;52.724;6.516;2023-05-07T12:43:28;10.30;;;6.43;;
78670;SDS011;68277;52.724;6.516;2023-05-07T12:48:22;13.05;;;6.53;;
78670;SDS011;68277;52.724;6.516;2023-05-07T12:50:55;11.73;;;6.78;;
78670;SDS011;68277;52.724;6.516;2023-05-07T12:53:22;7.32;;;5.13;;
78670;SDS011;68277;52.724;6.516;2023-05-07T12:55:50;9.85;;;4.75;;
78670;SDS011;68277;52.724;6.516;2023-05-07T12:58:18;11.90;;;7.05;;
78670;SDS011;68277;52.724;6.516;2023-05-07T13:00:52;13.00;;;6.55;;
78670;SDS011;68277;52.724;6.516;2023-05-07T13:03:26;11.38;;;6.40;;
78670;SDS011;68277;52.724;6.516;2023-05-07T13:06:03;11.88;;;6.10;;
78670;SDS011;68277;52.724;6.516;2023-05-07T13:08:31;9.27;;;5.47;;
78670;SDS011;68277;52.724;6.516;2023-05-07T13:11:00;12.95;;;6.85;;
78670;SDS011;68277;52.724;6.516;2023-05-07T13:13:33;14.13;;;7.95;;
78670;SDS011;68277;52.724;6.516;2023-05-07T13:16:00;13.10;;;7.90;;
78670;SDS011;68277;52.724;6.516;2023-05-07T13:18:26;12.05;;;7.40;;
78670;SDS011;68277;52.724;6.516;2023-05-07T13:20:54;12.88;;;7.68;;
78670;SDS011;68277;52.724;6.516;2023-05-07T13:23:20;13.20;;;7.50;;
78670;SDS011;68277;52.724;6.516;2023-05-07T13:25:45;9.98;;;6.05;;
78670;SDS011;68277;52.724;6.516;2023-05-07T13:28:11;11.20;;;6.78;;
78670;SDS011;68277;52.724;6.516;2023-05-07T13:30:37;12.48;;;6.28;;
78670;SDS011;68277;52.724;6.516;2023-05-07T13:33:06;14.25;;;6.85;;
78670;SDS011;68277;52.724;6.516;2023-05-07T13:35:34;12.90;;;6.43;;
78670;SDS011;68277;52.724;6.516;2023-05-07T13:38:00;10.23;;;5.75;;
78670;SDS011;68277;52.724;6.516;2023-05-07T13:40:25;16.17;;;8.18;;
78670;SDS011;68277;52.724;6.516;2023-05-07T13:42:50;10.25;;;5.95;;
78670;SDS011;68277;52.724;6.516;2023-05-07T13:45:19;11.52;;;7.80;;
78670;SDS011;68277;52.724;6.516;2023-05-07T13:47:45;10.30;;;7.07;;
78670;SDS011;68277;52.724;6.516;2023-05-07T13:50:12;11.60;;;7.45;;
78670;SDS011;68277;52.724;6.516;2023-05-07T13:52:41;14.38;;;7.18;;
78670;SDS011;68277;52.724;6.516;2023-05-07T13:55:25;10.05;;;5.60;;
78670;SDS011;68277;52.724;6.516;2023-05-07T13:57:54;12.25;;;6.65;;
78670;SDS011;68277;52.724;6.516;2023-05-07T14:00:24;13.65;;;7.70;;
78670;SDS011;68277;52.724;6.516;2023-05-07T14:02:51;13.70;;;7.85;;
78670;SDS011;68277;52.724;6.516;2023-05-07T14:05:17;13.75;;;7.95;;
78670;SDS011;68277;52.724;6.516;2023-05-07T14:07:42;18.52;;;8.18;;
78670;SDS011;68277;52.724;6.516;2023-05-07T14:10:08;11.85;;;6.63;;
78670;SDS011;68277;52.724;6.516;2023-05-07T14:12:34;9.27;;;5.60;;
78670;SDS011;68277;52.724;6.516;2023-05-07T14:15:01;12.68;;;6.95;;
78670;SDS011;68277;52.724;6.516;2023-05-07T14:17:26;10.00;;;5.78;;
78670;SDS011;68277;52.724;6.516;2023-05-07T14:19:52;10.63;;;6.88;;
78670;SDS011;68277;52.724;6.516;2023-05-07T14:22:19;10.68;;;6.20;;
78670;SDS011;68277;52.724;6.516;2023-05-07T14:24:45;12.30;;;6.78;;
78670;SDS011;68277;52.724;6.516;2023-05-07T14:27:11;11.93;;;6.82;;
78670;SDS011;68277;52.724;6.516;2023-05-07T14:29:36;9.38;;;5.57;;
78670;SDS011;68277;52.724;6.516;2023-05-07T14:32:02;13.13;;;7.50;;
78670;SDS011;68277;52.724;6.516;2023-05-07T14:34:28;10.63;;;6.55;;
78670;SDS011;68277;52.724;6.516;2023-05-07T14:36:54;10.80;;;6.53;;
78670;SDS011;68277;52.724;6.516;2023-05-07T14:39:20;10.57;;;6.40;;
78670;SDS011;68277;52.724;6.516;2023-05-07T14:41:46;11.18;;;6.68;;
78670;SDS011;68277;52.724;6.516;2023-05-07T14:44:12;8.55;;;4.80;;
78670;SDS011;68277;52.724;6.516;2023-05-07T14:46:37;6.07;;;4.05;;
78670;SDS011;68277;52.724;6.516;2023-05-07T14:49:02;8.35;;;4.65;;
78670;SDS011;68277;52.724;6.516;2023-05-07T14:51:28;9.10;;;6.00;;
78670;SDS011;68277;52.724;6.516;2023-05-07T14:53:54;7.15;;;4.82;;
78670;SDS011;68277;52.724;6.516;2023-05-07T14:56:19;10.13;;;6.47;;
78670;SDS011;68277;52.724;6.516;2023-05-07T14:58:46;11.88;;;6.45;;
78670;SDS011;68277;52.724;6.516;2023-05-07T15:01:13;11.90;;;6.88;;
78670;SDS011;68277;52.724;6.516;2023-05-07T15:03:39;9.55;;;5.45;;
78670;SDS011;68277;52.724;6.516;2023-05-07T15:06:05;6.57;;;4.43;;
78670;SDS011;68277;52.724;6.516;2023-05-07T15:08:30;7.47;;;5.07;;